sensor_id;sensor_type;location;lat;lon;timestamp;P1;durP1;ratioP1;P2;durP2;ratioP2
39888;SDS011;25563;50.844;4.308;2022-07-23T00:00:23;17.17;;;15.25;;
39888;SDS011;25563;50.844;4.308;2022-07-23T00:02:49;18.40;;;15.27;;
39888;SDS011;25563;50.844;4.308;2022-07-23T00:05:14;16.40;;;14.98;;
39888;SDS011;25563;50.844;4.308;2022-07-23T00:07:40;16.25;;;14.63;;
39888;SDS011;25563;50.844;4.308;2022-07-23T00:10:06;17.20;;;15.43;;
39888;SDS011;25563;50.844;4.308;2022-07-23T00:12:32;16.63;;;14.65;;
39888;SDS011;25563;50.844;4.308;2022-07-23T00:15:00;16.02;;;14.45;;
39888;SDS011;25563;50.844;4.308;2022-07-23T00:17:27;17.73;;;14.23;;
39888;SDS011;25563;50.844;4.308;2022-07-23T00:20:00;18.17;;;15.20;;
39888;SDS011;25563;50.844;4.308;2022-07-23T00:22:27;15.60;;;14.30;;
39888;SDS011;25563;50.844;4.308;2022-07-23T00:24:54;17.33;;;15.65;;
39888;SDS011;25563;50.844;4.308;2022-07-23T00:27:24;16.88;;;15.27;;
39888;SDS011;25563;50.844;4.308;2022-07-23T00:29:49;16.53;;;15.10;;
39888;SDS011;25563;50.844;4.308;2022-07-23T00:32:16;16.77;;;15.18;;
39888;SDS011;25563;50.844;4.308;2022-07-23T00:34:44;17.10;;;15.48;;
39888;SDS011;25563;50.844;4.308;2022-07-23T00:37:10;17.77;;;14.77;;
39888;SDS011;25563;50.844;4.308;2022-07-23T00:39:36;16.52;;;15.02;;
39888;SDS011;25563;50.844;4.308;2022-07-23T00:42:02;17.42;;;15.93;;
39888;SDS011;25563;50.844;4.308;2022-07-23T00:44:29;17.55;;;15.93;;
39888;SDS011;25563;50.844;4.308;2022-07-23T00:46:59;16.25;;;14.85;;
39888;SDS011;25563;50.844;4.308;2022-07-23T00:49:26;17.02;;;15.20;;
39888;SDS011;25563;50.844;4.308;2022-07-23T00:51:54;16.60;;;14.95;;
39888;SDS011;25563;50.844;4.308;2022-07-23T00:54:21;17.48;;;15.68;;
39888;SDS011;25563;50.844;4.308;2022-07-23T00:56:49;17.77;;;16.05;;
39888;SDS011;25563;50.844;4.308;2022-07-23T00:59:15;16.52;;;15.25;;
39888;SDS011;25563;50.844;4.308;2022-07-23T01:01:41;27.08;;;15.88;;
39888;SDS011;25563;50.844;4.308;2022-07-23T01:04:10;18.88;;;15.10;;
39888;SDS011;25563;50.844;4.308;2022-07-23T01:06:38;17.45;;;15.65;;
39888;SDS011;25563;50.844;4.308;2022-07-23T01:09:05;17.08;;;15.55;;
39888;SDS011;25563;50.844;4.308;2022-07-23T01:11:35;16.88;;;15.38;;
39888;SDS011;25563;50.844;4.308;2022-07-23T01:14:09;24.08;;;16.48;;
39888;SDS011;25563;50.844;4.308;2022-07-23T01:16:40;19.20;;;15.07;;
39888;SDS011;25563;50.844;4.308;2022-07-23T01:19:09;19.27;;;17.48;;
39888;SDS011;25563;50.844;4.308;2022-07-23T01:21:36;16.73;;;15.30;;
39888;SDS011;25563;50.844;4.308;2022-07-23T01:24:04;18.00;;;16.05;;
39888;SDS011;25563;50.844;4.308;2022-07-23T01:26:30;17.17;;;15.40;;
39888;SDS011;25563;50.844;4.308;2022-07-23T01:28:56;18.50;;;15.65;;
39888;SDS011;25563;50.844;4.308;2022-07-23T01:31:22;17.20;;;15.43;;
39888;SDS011;25563;50.844;4.308;2022-07-23T01:33:48;16.85;;;15.40;;
39888;SDS011;25563;50.844;4.308;2022-07-23T01:36:14;17.27;;;15.50;;
39888;SDS011;25563;50.844;4.308;2022-07-23T01:38:41;16.88;;;15.40;;
39888;SDS011;25563;50.844;4.308;2022-07-23T01:41:07;17.70;;;16.05;;
39888;SDS011;25563;50.844;4.308;2022-07-23T01:43:35;16.15;;;14.88;;
39888;SDS011;25563;50.844;4.308;2022-07-23T01:46:00;16.77;;;15.13;;
39888;SDS011;25563;50.844;4.308;2022-07-23T01:48:27;17.50;;;15.80;;
39888;SDS011;25563;50.844;4.308;2022-07-23T01:50:54;16.55;;;15.25;;
39888;SDS011;25563;50.844;4.308;2022-07-23T01:53:20;17.30;;;15.70;;
39888;SDS011;25563;50.844;4.308;2022-07-23T01:55:47;16.60;;;15.07;;
39888;SDS011;25563;50.844;4.308;2022-07-23T01:58:15;17.90;;;15.85;;
39888;SDS011;25563;50.844;4.308;2022-07-23T02:00:41;20.00;;;15.15;;
39888;SDS011;25563;50.844;4.308;2022-07-23T02:03:09;19.38;;;15.75;;
39888;SDS011;25563;50.844;4.308;2022-07-23T02:05:34;15.65;;;14.52;;
39888;SDS011;25563;50.844;4.308;2022-07-23T02:08:02;19.38;;;15.15;;
39888;SDS011;25563;50.844;4.308;2022-07-23T02:10:27;17.23;;;15.73;;
39888;SDS011;25563;50.844;4.308;2022-07-23T02:12:53;17.70;;;15.32;;
39888;SDS011;25563;50.844;4.308;2022-07-23T02:15:20;16.02;;;14.45;;
39888;SDS011;25563;50.844;4.308;2022-07-23T02:17:46;18.60;;;15.35;;
39888;SDS011;25563;50.844;4.308;2022-07-23T02:20:12;16.80;;;15.43;;
39888;SDS011;25563;50.844;4.308;2022-07-23T02:22:39;17.35;;;15.75;;
39888;SDS011;25563;50.844;4.308;2022-07-23T02:25:06;17.30;;;15.77;;
39888;SDS011;25563;50.844;4.308;2022-07-23T02:27:33;16.33;;;14.98;;
39888;SDS011;25563;50.844;4.308;2022-07-23T02:29:59;17.35;;;15.52;;
39888;SDS011;25563;50.844;4.308;2022-07-23T02:32:25;16.67;;;15.48;;
39888;SDS011;25563;50.844;4.308;2022-07-23T02:34:52;16.35;;;14.88;;
39888;SDS011;25563;50.844;4.308;2022-07-23T02:37:18;17.98;;;15.95;;
39888;SDS011;25563;50.844;4.308;2022-07-23T02:39:44;18.10;;;15.77;;
39888;SDS011;25563;50.844;4.308;2022-07-23T02:42:10;17.95;;;16.17;;
39888;SDS011;25563;50.844;4.308;2022-07-23T02:44:35;16.25;;;14.57;;
39888;SDS011;25563;50.844;4.308;2022-07-23T02:47:01;16.90;;;15.45;;
39888;SDS011;25563;50.844;4.308;2022-07-23T02:49:27;16.98;;;15.27;;
39888;SDS011;25563;50.844;4.308;2022-07-23T02:51:53;16.25;;;15.00;;
39888;SDS011;25563;50.844;4.308;2022-07-23T02:54:19;16.67;;;15.05;;
39888;SDS011;25563;50.844;4.308;2022-07-23T02:56:45;17.33;;;15.60;;
39888;SDS011;25563;50.844;4.308;2022-07-23T02:59:11;22.00;;;16.33;;
39888;SDS011;25563;50.844;4.308;2022-07-23T03:01:37;18.75;;;15.43;;
39888;SDS011;25563;50.844;4.308;2022-07-23T03:04:03;17.60;;;15.80;;
39888;SDS011;25563;50.844;4.308;2022-07-23T03:06:29;15.48;;;14.02;;
39888;SDS011;25563;50.844;4.308;2022-07-23T03:08:54;16.48;;;15.27;;
39888;SDS011;25563;50.844;4.308;2022-07-23T03:11:20;17.92;;;16.40;;
39888;SDS011;25563;50.844;4.308;2022-07-23T03:13:46;17.63;;;16.13;;
39888;SDS011;25563;50.844;4.308;2022-07-23T03:16:12;18.20;;;16.48;;
39888;SDS011;25563;50.844;4.308;2022-07-23T03:18:39;17.73;;;15.95;;
39888;SDS011;25563;50.844;4.308;2022-07-23T03:21:06;17.27;;;15.60;;
39888;SDS011;25563;50.844;4.308;2022-07-23T03:23:33;18.42;;;16.25;;
39888;SDS011;25563;50.844;4.308;2022-07-23T03:25:59;19.30;;;15.35;;
39888;SDS011;25563;50.844;4.308;2022-07-23T03:28:24;18.48;;;15.50;;
39888;SDS011;25563;50.844;4.308;2022-07-23T03:30:50;16.88;;;15.32;;
39888;SDS011;25563;50.844;4.308;2022-07-23T03:33:16;15.68;;;14.43;;
39888;SDS011;25563;50.844;4.308;2022-07-23T03:35:46;20.83;;;17.60;;
39888;SDS011;25563;50.844;4.308;2022-07-23T03:38:12;17.80;;;16.10;;
39888;SDS011;25563;50.844;4.308;2022-07-23T03:40:39;16.77;;;15.48;;
39888;SDS011;25563;50.844;4.308;2022-07-23T03:43:04;18.27;;;16.65;;
39888;SDS011;25563;50.844;4.308;2022-07-23T03:45:31;19.75;;;16.70;;
39888;SDS011;25563;50.844;4.308;2022-07-23T03:47:58;19.95;;;17.83;;
39888;SDS011;25563;50.844;4.308;2022-07-23T03:50:24;24.42;;;16.40;;
39888;SDS011;25563;50.844;4.308;2022-07-23T03:52:50;17.52;;;15.82;;
39888;SDS011;25563;50.844;4.308;2022-07-23T03:55:16;18.83;;;16.58;;
39888;SDS011;25563;50.844;4.308;2022-07-23T03:57:43;18.55;;;16.73;;
39888;SDS011;25563;50.844;4.308;2022-07-23T04:00:09;17.98;;;15.73;;
39888;SDS011;25563;50.844;4.308;2022-07-23T04:02:36;17.75;;;16.15;;
39888;SDS011;25563;50.844;4.308;2022-07-23T04:05:02;16.52;;;14.93;;
39888;SDS011;25563;50.844;4.308;2022-07-23T04:07:29;20.45;;;16.15;;
39888;SDS011;25563;50.844;4.308;2022-07-23T04:09:55;17.33;;;15.57;;
39888;SDS011;25563;50.844;4.308;2022-07-23T04:12:21;17.75;;;16.35;;
39888;SDS011;25563;50.844;4.308;2022-07-23T04:14:47;18.63;;;16.40;;
39888;SDS011;25563;50.844;4.308;2022-07-23T04:17:12;18.02;;;16.25;;
39888;SDS011;25563;50.844;4.308;2022-07-23T04:19:38;19.08;;;15.18;;
39888;SDS011;25563;50.844;4.308;2022-07-23T04:22:06;17.65;;;15.98;;
39888;SDS011;25563;50.844;4.308;2022-07-23T04:24:33;17.13;;;15.45;;
39888;SDS011;25563;50.844;4.308;2022-07-23T04:26:59;16.88;;;15.43;;
39888;SDS011;25563;50.844;4.308;2022-07-23T04:29:25;17.20;;;15.38;;
39888;SDS011;25563;50.844;4.308;2022-07-23T04:31:51;16.55;;;14.93;;
39888;SDS011;25563;50.844;4.308;2022-07-23T04:34:16;16.05;;;14.70;;
39888;SDS011;25563;50.844;4.308;2022-07-23T04:36:43;16.70;;;15.27;;
39888;SDS011;25563;50.844;4.308;2022-07-23T04:39:09;16.05;;;14.40;;
39888;SDS011;25563;50.844;4.308;2022-07-23T04:41:34;16.15;;;14.75;;
39888;SDS011;25563;50.844;4.308;2022-07-23T04:44:00;18.80;;;14.65;;
39888;SDS011;25563;50.844;4.308;2022-07-23T04:46:27;16.75;;;15.23;;
39888;SDS011;25563;50.844;4.308;2022-07-23T04:48:53;16.13;;;14.70;;
39888;SDS011;25563;50.844;4.308;2022-07-23T04:51:19;16.10;;;14.60;;
39888;SDS011;25563;50.844;4.308;2022-07-23T04:53:44;15.10;;;13.73;;
39888;SDS011;25563;50.844;4.308;2022-07-23T04:56:12;19.77;;;17.55;;
39888;SDS011;25563;50.844;4.308;2022-07-23T04:58:37;15.75;;;14.43;;
39888;SDS011;25563;50.844;4.308;2022-07-23T05:01:03;17.00;;;14.70;;
39888;SDS011;25563;50.844;4.308;2022-07-23T05:03:29;14.88;;;13.70;;
39888;SDS011;25563;50.844;4.308;2022-07-23T05:05:56;15.68;;;14.05;;
39888;SDS011;25563;50.844;4.308;2022-07-23T05:08:22;15.02;;;13.82;;
39888;SDS011;25563;50.844;4.308;2022-07-23T05:10:48;15.00;;;13.68;;
39888;SDS011;25563;50.844;4.308;2022-07-23T05:13:14;15.70;;;14.23;;
39888;SDS011;25563;50.844;4.308;2022-07-23T05:15:41;15.18;;;13.93;;
39888;SDS011;25563;50.844;4.308;2022-07-23T05:18:07;14.95;;;13.60;;
39888;SDS011;25563;50.844;4.308;2022-07-23T05:20:33;15.02;;;13.43;;
39888;SDS011;25563;50.844;4.308;2022-07-23T05:22:59;15.45;;;13.98;;
39888;SDS011;25563;50.844;4.308;2022-07-23T05:25:26;14.77;;;13.43;;
39888;SDS011;25563;50.844;4.308;2022-07-23T05:27:52;18.17;;;13.63;;
39888;SDS011;25563;50.844;4.308;2022-07-23T05:30:18;15.57;;;13.60;;
39888;SDS011;25563;50.844;4.308;2022-07-23T05:32:45;14.23;;;13.15;;
39888;SDS011;25563;50.844;4.308;2022-07-23T05:35:10;14.35;;;13.02;;
39888;SDS011;25563;50.844;4.308;2022-07-23T05:37:37;15.98;;;14.48;;
39888;SDS011;25563;50.844;4.308;2022-07-23T05:40:07;14.43;;;13.32;;
39888;SDS011;25563;50.844;4.308;2022-07-23T05:42:34;17.77;;;14.70;;
39888;SDS011;25563;50.844;4.308;2022-07-23T05:45:03;15.27;;;14.05;;
39888;SDS011;25563;50.844;4.308;2022-07-23T05:47:38;15.40;;;14.02;;
39888;SDS011;25563;50.844;4.308;2022-07-23T05:50:07;21.00;;;15.10;;
39888;SDS011;25563;50.844;4.308;2022-07-23T05:52:35;17.15;;;15.10;;
39888;SDS011;25563;50.844;4.308;2022-07-23T05:55:01;19.95;;;14.88;;
39888;SDS011;25563;50.844;4.308;2022-07-23T05:57:27;16.25;;;14.63;;
39888;SDS011;25563;50.844;4.308;2022-07-23T05:59:54;15.63;;;13.75;;
39888;SDS011;25563;50.844;4.308;2022-07-23T06:02:21;15.82;;;14.65;;
39888;SDS011;25563;50.844;4.308;2022-07-23T06:04:48;16.75;;;15.40;;
39888;SDS011;25563;50.844;4.308;2022-07-23T06:07:14;16.75;;;15.13;;
39888;SDS011;25563;50.844;4.308;2022-07-23T06:09:39;16.15;;;14.60;;
39888;SDS011;25563;50.844;4.308;2022-07-23T06:12:05;16.10;;;14.05;;
39888;SDS011;25563;50.844;4.308;2022-07-23T06:14:33;16.13;;;14.43;;
39888;SDS011;25563;50.844;4.308;2022-07-23T06:16:58;15.68;;;14.38;;
39888;SDS011;25563;50.844;4.308;2022-07-23T06:19:24;16.50;;;15.02;;
39888;SDS011;25563;50.844;4.308;2022-07-23T06:21:50;15.27;;;14.02;;
39888;SDS011;25563;50.844;4.308;2022-07-23T06:24:17;16.58;;;14.88;;
39888;SDS011;25563;50.844;4.308;2022-07-23T06:26:43;16.70;;;14.80;;
39888;SDS011;25563;50.844;4.308;2022-07-23T06:29:09;20.77;;;14.60;;
39888;SDS011;25563;50.844;4.308;2022-07-23T06:31:35;17.27;;;14.85;;
39888;SDS011;25563;50.844;4.308;2022-07-23T06:34:02;17.52;;;15.32;;
39888;SDS011;25563;50.844;4.308;2022-07-23T06:36:29;16.38;;;14.93;;
39888;SDS011;25563;50.844;4.308;2022-07-23T06:38:55;16.42;;;14.73;;
39888;SDS011;25563;50.844;4.308;2022-07-23T06:41:20;18.45;;;14.63;;
39888;SDS011;25563;50.844;4.308;2022-07-23T06:43:49;16.00;;;14.45;;
39888;SDS011;25563;50.844;4.308;2022-07-23T06:46:15;15.05;;;13.70;;
39888;SDS011;25563;50.844;4.308;2022-07-23T06:48:43;16.35;;;15.05;;
39888;SDS011;25563;50.844;4.308;2022-07-23T06:51:10;15.35;;;13.85;;
39888;SDS011;25563;50.844;4.308;2022-07-23T06:53:37;19.77;;;15.40;;
39888;SDS011;25563;50.844;4.308;2022-07-23T06:56:03;16.40;;;14.70;;
39888;SDS011;25563;50.844;4.308;2022-07-23T06:58:29;19.92;;;14.30;;
39888;SDS011;25563;50.844;4.308;2022-07-23T07:00:56;16.02;;;14.50;;
39888;SDS011;25563;50.844;4.308;2022-07-23T07:03:22;13.88;;;12.55;;
39888;SDS011;25563;50.844;4.308;2022-07-23T07:05:48;16.27;;;13.13;;
39888;SDS011;25563;50.844;4.308;2022-07-23T07:08:15;14.73;;;12.82;;
39888;SDS011;25563;50.844;4.308;2022-07-23T07:10:42;15.00;;;13.73;;
39888;SDS011;25563;50.844;4.308;2022-07-23T07:13:09;14.50;;;13.60;;
39888;SDS011;25563;50.844;4.308;2022-07-23T07:15:35;17.15;;;13.13;;
39888;SDS011;25563;50.844;4.308;2022-07-23T07:18:02;14.52;;;13.23;;
39888;SDS011;25563;50.844;4.308;2022-07-23T07:20:28;17.42;;;14.20;;
39888;SDS011;25563;50.844;4.308;2022-07-23T07:22:55;13.55;;;12.30;;
39888;SDS011;25563;50.844;4.308;2022-07-23T07:25:22;13.90;;;12.73;;
39888;SDS011;25563;50.844;4.308;2022-07-23T07:27:48;15.23;;;13.20;;
39888;SDS011;25563;50.844;4.308;2022-07-23T07:30:17;14.73;;;13.32;;
39888;SDS011;25563;50.844;4.308;2022-07-23T07:32:43;14.27;;;12.77;;
39888;SDS011;25563;50.844;4.308;2022-07-23T07:35:09;12.40;;;11.20;;
39888;SDS011;25563;50.844;4.308;2022-07-23T07:37:34;12.77;;;11.63;;
39888;SDS011;25563;50.844;4.308;2022-07-23T07:40:01;13.93;;;11.05;;
39888;SDS011;25563;50.844;4.308;2022-07-23T07:42:28;12.75;;;11.63;;
39888;SDS011;25563;50.844;4.308;2022-07-23T07:44:55;12.15;;;11.20;;
39888;SDS011;25563;50.844;4.308;2022-07-23T07:47:20;12.50;;;11.43;;
39888;SDS011;25563;50.844;4.308;2022-07-23T07:49:46;16.17;;;11.13;;
39888;SDS011;25563;50.844;4.308;2022-07-23T07:52:12;12.70;;;11.68;;
39888;SDS011;25563;50.844;4.308;2022-07-23T07:54:38;12.80;;;11.70;;
39888;SDS011;25563;50.844;4.308;2022-07-23T07:57:04;14.75;;;11.40;;
39888;SDS011;25563;50.844;4.308;2022-07-23T07:59:30;12.85;;;11.70;;
39888;SDS011;25563;50.844;4.308;2022-07-23T08:01:59;11.73;;;10.60;;
39888;SDS011;25563;50.844;4.308;2022-07-23T08:04:39;12.30;;;11.25;;
39888;SDS011;25563;50.844;4.308;2022-07-23T08:07:05;12.70;;;11.52;;
39888;SDS011;25563;50.844;4.308;2022-07-23T08:09:32;19.17;;;12.02;;
39888;SDS011;25563;50.844;4.308;2022-07-23T08:12:01;12.30;;;11.25;;
39888;SDS011;25563;50.844;4.308;2022-07-23T08:14:31;11.18;;;10.25;;
39888;SDS011;25563;50.844;4.308;2022-07-23T08:17:05;12.35;;;11.13;;
39888;SDS011;25563;50.844;4.308;2022-07-23T08:19:32;14.15;;;10.82;;
39888;SDS011;25563;50.844;4.308;2022-07-23T08:22:01;15.30;;;10.55;;
39888;SDS011;25563;50.844;4.308;2022-07-23T08:24:27;10.90;;;9.95;;
39888;SDS011;25563;50.844;4.308;2022-07-23T08:26:55;11.45;;;10.45;;
39888;SDS011;25563;50.844;4.308;2022-07-23T08:29:22;12.88;;;11.43;;
39888;SDS011;25563;50.844;4.308;2022-07-23T08:31:48;11.40;;;10.23;;
39888;SDS011;25563;50.844;4.308;2022-07-23T08:34:15;11.57;;;10.68;;
39888;SDS011;25563;50.844;4.308;2022-07-23T08:36:47;12.02;;;9.93;;
39888;SDS011;25563;50.844;4.308;2022-07-23T08:39:14;10.32;;;9.40;;
39888;SDS011;25563;50.844;4.308;2022-07-23T08:41:41;15.07;;;10.50;;
39888;SDS011;25563;50.844;4.308;2022-07-23T08:44:09;11.23;;;10.15;;
39888;SDS011;25563;50.844;4.308;2022-07-23T08:46:36;10.77;;;9.30;;
39888;SDS011;25563;50.844;4.308;2022-07-23T08:49:04;9.70;;;8.55;;
39888;SDS011;25563;50.844;4.308;2022-07-23T08:51:31;9.50;;;8.70;;
39888;SDS011;25563;50.844;4.308;2022-07-23T08:53:59;14.90;;;11.82;;
39888;SDS011;25563;50.844;4.308;2022-07-23T08:56:25;10.23;;;9.48;;
39888;SDS011;25563;50.844;4.308;2022-07-23T08:58:53;10.77;;;9.75;;
39888;SDS011;25563;50.844;4.308;2022-07-23T09:01:19;9.52;;;8.27;;
39888;SDS011;25563;50.844;4.308;2022-07-23T09:03:52;9.02;;;8.30;;
39888;SDS011;25563;50.844;4.308;2022-07-23T09:06:23;10.45;;;9.45;;
39888;SDS011;25563;50.844;4.308;2022-07-23T09:08:51;10.27;;;9.48;;
39888;SDS011;25563;50.844;4.308;2022-07-23T09:11:17;10.82;;;9.73;;
39888;SDS011;25563;50.844;4.308;2022-07-23T09:16:31;12.00;;;10.50;;
39888;SDS011;25563;50.844;4.308;2022-07-23T09:19:06;9.35;;;8.52;;
39888;SDS011;25563;50.844;4.308;2022-07-23T09:21:36;10.57;;;8.93;;
39888;SDS011;25563;50.844;4.308;2022-07-23T09:24:04;9.80;;;8.63;;
39888;SDS011;25563;50.844;4.308;2022-07-23T09:26:33;10.50;;;9.48;;
39888;SDS011;25563;50.844;4.308;2022-07-23T09:29:11;15.20;;;8.75;;
39888;SDS011;25563;50.844;4.308;2022-07-23T09:32:07;9.57;;;8.40;;
39888;SDS011;25563;50.844;4.308;2022-07-23T09:34:43;10.65;;;9.60;;
39888;SDS011;25563;50.844;4.308;2022-07-23T09:37:16;9.68;;;8.95;;
39888;SDS011;25563;50.844;4.308;2022-07-23T09:39:45;9.02;;;7.93;;
39888;SDS011;25563;50.844;4.308;2022-07-23T09:42:14;9.55;;;8.75;;
39888;SDS011;25563;50.844;4.308;2022-07-23T09:44:48;9.77;;;8.93;;
39888;SDS011;25563;50.844;4.308;2022-07-23T09:47:19;9.05;;;8.40;;
39888;SDS011;25563;50.844;4.308;2022-07-23T09:52:30;10.13;;;8.48;;
39888;SDS011;25563;50.844;4.308;2022-07-23T09:54:59;11.63;;;7.93;;
39888;SDS011;25563;50.844;4.308;2022-07-23T09:57:31;9.50;;;8.68;;
39888;SDS011;25563;50.844;4.308;2022-07-23T10:00:06;8.68;;;7.75;;
39888;SDS011;25563;50.844;4.308;2022-07-23T10:02:37;7.43;;;6.82;;
39888;SDS011;25563;50.844;4.308;2022-07-23T10:05:06;7.65;;;6.95;;
39888;SDS011;25563;50.844;4.308;2022-07-23T10:07:33;9.10;;;8.07;;
39888;SDS011;25563;50.844;4.308;2022-07-23T10:10:02;7.30;;;6.53;;
39888;SDS011;25563;50.844;4.308;2022-07-23T10:12:30;9.15;;;8.32;;
39888;SDS011;25563;50.844;4.308;2022-07-23T10:15:08;8.40;;;7.53;;
39888;SDS011;25563;50.844;4.308;2022-07-23T10:17:34;8.52;;;7.65;;
39888;SDS011;25563;50.844;4.308;2022-07-23T10:20:00;6.85;;;6.25;;
39888;SDS011;25563;50.844;4.308;2022-07-23T10:22:35;7.60;;;6.88;;
39888;SDS011;25563;50.844;4.308;2022-07-23T10:39:46;8.32;;;7.55;;
39888;SDS011;25563;50.844;4.308;2022-07-23T10:42:13;9.40;;;8.70;;
39888;SDS011;25563;50.844;4.308;2022-07-23T10:44:46;8.82;;;7.28;;
39888;SDS011;25563;50.844;4.308;2022-07-23T10:47:21;10.32;;;7.45;;
39888;SDS011;25563;50.844;4.308;2022-07-23T10:50:19;7.97;;;7.28;;
39888;SDS011;25563;50.844;4.308;2022-07-23T10:58:04;8.95;;;6.90;;
39888;SDS011;25563;50.844;4.308;2022-07-23T11:00:31;7.95;;;7.18;;
39888;SDS011;25563;50.844;4.308;2022-07-23T11:02:59;9.77;;;6.80;;
39888;SDS011;25563;50.844;4.308;2022-07-23T11:05:45;7.10;;;5.63;;
39888;SDS011;25563;50.844;4.308;2022-07-23T11:10:43;7.22;;;6.63;;
39888;SDS011;25563;50.844;4.308;2022-07-23T11:34:49;6.88;;;6.35;;
39888;SDS011;25563;50.844;4.308;2022-07-23T11:37:32;7.20;;;6.63;;
39888;SDS011;25563;50.844;4.308;2022-07-23T11:40:07;7.13;;;6.53;;
39888;SDS011;25563;50.844;4.308;2022-07-23T11:42:36;7.25;;;6.03;;
39888;SDS011;25563;50.844;4.308;2022-07-23T11:45:04;6.63;;;6.05;;
39888;SDS011;25563;50.844;4.308;2022-07-23T11:47:34;6.38;;;5.78;;
39888;SDS011;25563;50.844;4.308;2022-07-23T11:50:01;7.20;;;6.50;;
39888;SDS011;25563;50.844;4.308;2022-07-23T11:52:31;8.80;;;7.85;;
39888;SDS011;25563;50.844;4.308;2022-07-23T11:54:58;7.05;;;6.38;;
39888;SDS011;25563;50.844;4.308;2022-07-23T11:57:28;6.50;;;5.97;;
39888;SDS011;25563;50.844;4.308;2022-07-23T12:00:14;5.88;;;5.40;;
39888;SDS011;25563;50.844;4.308;2022-07-23T12:02:58;7.40;;;6.70;;
39888;SDS011;25563;50.844;4.308;2022-07-23T12:05:30;6.88;;;6.38;;
39888;SDS011;25563;50.844;4.308;2022-07-23T12:07:59;7.07;;;5.57;;
39888;SDS011;25563;50.844;4.308;2022-07-23T12:12:56;5.85;;;4.95;;
39888;SDS011;25563;50.844;4.308;2022-07-23T12:18:01;4.95;;;4.55;;
39888;SDS011;25563;50.844;4.308;2022-07-23T12:20:32;4.53;;;4.00;;
39888;SDS011;25563;50.844;4.308;2022-07-23T12:23:03;5.25;;;4.13;;
39888;SDS011;25563;50.844;4.308;2022-07-23T12:25:55;3.85;;;3.55;;
39888;SDS011;25563;50.844;4.308;2022-07-23T12:28:51;4.32;;;3.33;;
39888;SDS011;25563;50.844;4.308;2022-07-23T12:31:24;5.05;;;4.65;;
39888;SDS011;25563;50.844;4.308;2022-07-23T12:33:51;4.90;;;4.38;;
39888;SDS011;25563;50.844;4.308;2022-07-23T12:36:19;3.80;;;3.45;;
39888;SDS011;25563;50.844;4.308;2022-07-23T12:39:01;4.00;;;3.55;;
39888;SDS011;25563;50.844;4.308;2022-07-23T12:41:29;4.60;;;3.05;;
39888;SDS011;25563;50.844;4.308;2022-07-23T12:44:20;2.65;;;2.45;;
39888;SDS011;25563;50.844;4.308;2022-07-23T12:46:52;4.20;;;2.70;;
39888;SDS011;25563;50.844;4.308;2022-07-23T12:49:27;2.72;;;1.88;;
39888;SDS011;25563;50.844;4.308;2022-07-23T12:51:54;3.10;;;2.80;;
39888;SDS011;25563;50.844;4.308;2022-07-23T12:54:46;4.97;;;2.80;;
39888;SDS011;25563;50.844;4.308;2022-07-23T12:57:11;3.58;;;3.13;;
39888;SDS011;25563;50.844;4.308;2022-07-23T12:59:46;2.33;;;2.13;;
39888;SDS011;25563;50.844;4.308;2022-07-23T13:02:12;3.80;;;2.60;;
39888;SDS011;25563;50.844;4.308;2022-07-23T13:04:41;2.25;;;2.05;;
39888;SDS011;25563;50.844;4.308;2022-07-23T13:07:09;3.15;;;2.80;;
39888;SDS011;25563;50.844;4.308;2022-07-23T13:09:36;4.30;;;2.42;;
39888;SDS011;25563;50.844;4.308;2022-07-23T13:12:30;2.67;;;2.45;;
39888;SDS011;25563;50.844;4.308;2022-07-23T13:15:03;4.35;;;2.22;;
39888;SDS011;25563;50.844;4.308;2022-07-23T13:17:31;2.80;;;2.00;;
39888;SDS011;25563;50.844;4.308;2022-07-23T13:20:00;2.40;;;1.85;;
39888;SDS011;25563;50.844;4.308;2022-07-23T13:22:32;1.83;;;1.73;;
39888;SDS011;25563;50.844;4.308;2022-07-23T13:25:00;4.40;;;2.75;;
39888;SDS011;25563;50.844;4.308;2022-07-23T13:27:26;5.13;;;2.05;;
39888;SDS011;25563;50.844;4.308;2022-07-23T13:29:52;3.28;;;2.20;;
39888;SDS011;25563;50.844;4.308;2022-07-23T13:32:19;3.58;;;2.00;;
39888;SDS011;25563;50.844;4.308;2022-07-23T13:34:49;3.85;;;2.05;;
39888;SDS011;25563;50.844;4.308;2022-07-23T13:37:15;1.75;;;1.65;;
39888;SDS011;25563;50.844;4.308;2022-07-23T13:39:41;2.40;;;2.20;;
39888;SDS011;25563;50.844;4.308;2022-07-23T13:42:09;6.00;;;2.30;;
39888;SDS011;25563;50.844;4.308;2022-07-23T13:44:35;3.35;;;2.20;;
39888;SDS011;25563;50.844;4.308;2022-07-23T13:47:03;2.97;;;1.92;;
39888;SDS011;25563;50.844;4.308;2022-07-23T13:49:29;2.40;;;2.17;;
39888;SDS011;25563;50.844;4.308;2022-07-23T13:51:55;2.60;;;2.03;;
39888;SDS011;25563;50.844;4.308;2022-07-23T13:54:23;3.42;;;2.25;;
39888;SDS011;25563;50.844;4.308;2022-07-23T13:56:49;3.20;;;2.20;;
39888;SDS011;25563;50.844;4.308;2022-07-23T13:59:16;2.03;;;1.67;;
39888;SDS011;25563;50.844;4.308;2022-07-23T14:01:43;2.30;;;1.70;;
39888;SDS011;25563;50.844;4.308;2022-07-23T14:04:14;2.17;;;1.60;;
39888;SDS011;25563;50.844;4.308;2022-07-23T14:06:39;3.53;;;2.30;;
39888;SDS011;25563;50.844;4.308;2022-07-23T14:09:08;3.53;;;1.83;;
39888;SDS011;25563;50.844;4.308;2022-07-23T14:11:34;2.45;;;2.00;;
39888;SDS011;25563;50.844;4.308;2022-07-23T14:14:01;2.80;;;2.35;;
39888;SDS011;25563;50.844;4.308;2022-07-23T14:16:28;2.30;;;2.10;;
39888;SDS011;25563;50.844;4.308;2022-07-23T14:18:54;3.88;;;2.33;;
39888;SDS011;25563;50.844;4.308;2022-07-23T14:21:20;6.40;;;2.10;;
39888;SDS011;25563;50.844;4.308;2022-07-23T14:23:48;2.95;;;1.92;;
39888;SDS011;25563;50.844;4.308;2022-07-23T14:26:16;2.58;;;1.80;;
39888;SDS011;25563;50.844;4.308;2022-07-23T14:28:46;2.65;;;2.45;;
39888;SDS011;25563;50.844;4.308;2022-07-23T14:31:11;2.50;;;2.30;;
39888;SDS011;25563;50.844;4.308;2022-07-23T14:33:39;4.10;;;2.30;;
39888;SDS011;25563;50.844;4.308;2022-07-23T14:36:05;2.25;;;2.05;;
39888;SDS011;25563;50.844;4.308;2022-07-23T14:38:32;3.15;;;1.80;;
39888;SDS011;25563;50.844;4.308;2022-07-23T14:40:59;3.80;;;2.20;;
39888;SDS011;25563;50.844;4.308;2022-07-23T14:43:26;9.65;;;2.28;;
39888;SDS011;25563;50.844;4.308;2022-07-23T14:45:52;4.95;;;2.33;;
39888;SDS011;25563;50.844;4.308;2022-07-23T14:48:17;2.97;;;1.92;;
39888;SDS011;25563;50.844;4.308;2022-07-23T14:50:46;5.80;;;2.70;;
39888;SDS011;25563;50.844;4.308;2022-07-23T14:53:14;3.10;;;1.67;;
39888;SDS011;25563;50.844;4.308;2022-07-23T14:55:44;2.17;;;2.03;;
39888;SDS011;25563;50.844;4.308;2022-07-23T14:58:14;3.22;;;2.17;;
39888;SDS011;25563;50.844;4.308;2022-07-23T15:00:42;8.15;;;2.05;;
39888;SDS011;25563;50.844;4.308;2022-07-23T15:03:09;4.38;;;2.15;;
39888;SDS011;25563;50.844;4.308;2022-07-23T15:05:35;1.98;;;1.88;;
39888;SDS011;25563;50.844;4.308;2022-07-23T15:08:03;2.08;;;1.98;;
39888;SDS011;25563;50.844;4.308;2022-07-23T15:10:29;3.38;;;2.00;;
39888;SDS011;25563;50.844;4.308;2022-07-23T15:12:54;2.40;;;2.17;;
39888;SDS011;25563;50.844;4.308;2022-07-23T15:15:20;4.15;;;2.60;;
39888;SDS011;25563;50.844;4.308;2022-07-23T15:17:51;2.33;;;2.03;;
39888;SDS011;25563;50.844;4.308;2022-07-23T15:20:18;2.83;;;2.25;;
39888;SDS011;25563;50.844;4.308;2022-07-23T15:22:44;2.65;;;2.45;;
39888;SDS011;25563;50.844;4.308;2022-07-23T15:25:12;3.28;;;2.30;;
39888;SDS011;25563;50.844;4.308;2022-07-23T15:27:38;2.35;;;2.10;;
39888;SDS011;25563;50.844;4.308;2022-07-23T15:30:05;4.18;;;2.83;;